sensor_id;sensor_type;location;lat;lon;timestamp;temperature;humidity
9125;DHT22;4597;48.730;9.114;2024-03-07T00:02:04;6.00;99.90
9125;DHT22;4597;48.730;9.114;2024-03-07T00:04:30;5.90;99.90
9125;DHT22;4597;48.730;9.114;2024-03-07T00:06:55;5.90;99.90
9125;DHT22;4597;48.730;9.114;2024-03-07T00:09:21;5.80;99.90
9125;DHT22;4597;48.730;9.114;2024-03-07T00:11:50;5.80;99.90
9125;DHT22;4597;48.730;9.114;2024-03-07T00:14:15;5.70;99.90
9125;DHT22;4597;48.730;9.114;2024-03-07T00:16:41;5.70;99.90
9125;DHT22;4597;48.730;9.114;2024-03-07T00:19:06;5.60;99.90
9125;DHT22;4597;48.730;9.114;2024-03-07T00:21:32;5.50;99.90
9125;DHT22;4597;48.730;9.114;2024-03-07T00:23:57;5.50;99.90
9125;DHT22;4597;48.730;9.114;2024-03-07T00:26:24;5.40;99.90
9125;DHT22;4597;48.730;9.114;2024-03-07T00:28:50;5.30;99.90
9125;DHT22;4597;48.730;9.114;2024-03-07T00:31:16;5.30;99.90
9125;DHT22;4597;48.730;9.114;2024-03-07T00:33:42;5.30;99.90
9125;DHT22;4597;48.730;9.114;2024-03-07T00:36:08;5.20;99.90
9125;DHT22;4597;48.730;9.114;2024-03-07T00:38:33;5.20;99.90
9125;DHT22;4597;48.730;9.114;2024-03-07T00:40:59;5.20;99.90
9125;DHT22;4597;48.730;9.114;2024-03-07T00:43:25;5.20;99.90
9125;DHT22;4597;48.730;9.114;2024-03-07T00:45:50;5.10;99.90
9125;DHT22;4597;48.730;9.114;2024-03-07T00:48:16;5.10;99.90
9125;DHT22;4597;48.730;9.114;2024-03-07T00:50:42;5.10;99.90
9125;DHT22;4597;48.730;9.114;2024-03-07T00:53:08;5.00;99.90
9125;DHT22;4597;48.730;9.114;2024-03-07T00:55:34;5.00;99.90
9125;DHT22;4597;48.730;9.114;2024-03-07T00:57:59;5.00;99.90
9125;DHT22;4597;48.730;9.114;2024-03-07T01:00:25;5.00;99.90
9125;DHT22;4597;48.730;9.114;2024-03-07T01:02:50;4.90;99.90
9125;DHT22;4597;48.730;9.114;2024-03-07T01:05:18;4.90;99.90
9125;DHT22;4597;48.730;9.114;2024-03-07T01:07:44;4.90;99.90
9125;DHT22;4597;48.730;9.114;2024-03-07T01:10:12;4.90;99.90
9125;DHT22;4597;48.730;9.114;2024-03-07T01:12:38;4.80;99.90
9125;DHT22;4597;48.730;9.114;2024-03-07T01:15:03;4.80;99.90
9125;DHT22;4597;48.730;9.114;2024-03-07T01:17:32;4.80;99.90
9125;DHT22;4597;48.730;9.114;2024-03-07T01:19:58;4.70;99.90
9125;DHT22;4597;48.730;9.114;2024-03-07T01:22:24;4.70;99.90
9125;DHT22;4597;48.730;9.114;2024-03-07T01:24:50;4.70;99.90
9125;DHT22;4597;48.730;9.114;2024-03-07T01:27:18;4.70;99.90
9125;DHT22;4597;48.730;9.114;2024-03-07T01:29:44;4.70;99.90
9125;DHT22;4597;48.730;9.114;2024-03-07T01:32:10;4.60;99.90
9125;DHT22;4597;48.730;9.114;2024-03-07T01:34:36;4.60;99.90
9125;DHT22;4597;48.730;9.114;2024-03-07T01:37:01;4.50;99.90
9125;DHT22;4597;48.730;9.114;2024-03-07T01:39:27;4.50;99.90
9125;DHT22;4597;48.730;9.114;2024-03-07T01:41:52;4.40;99.90
9125;DHT22;4597;48.730;9.114;2024-03-07T01:44:18;4.30;99.90
9125;DHT22;4597;48.730;9.114;2024-03-07T01:46:43;4.30;99.90
9125;DHT22;4597;48.730;9.114;2024-03-07T01:49:09;4.30;99.90
9125;DHT22;4597;48.730;9.114;2024-03-07T01:51:36;4.20;99.90
9125;DHT22;4597;48.730;9.114;2024-03-07T01:54:02;4.20;99.90
9125;DHT22;4597;48.730;9.114;2024-03-07T01:56:28;4.20;99.90
9125;DHT22;4597;48.730;9.114;2024-03-07T01:58:55;4.10;99.90
9125;DHT22;4597;48.730;9.114;2024-03-07T02:01:22;4.10;99.90
9125;DHT22;4597;48.730;9.114;2024-03-07T02:03:48;4.10;99.90
9125;DHT22;4597;48.730;9.114;2024-03-07T02:06:14;4.10;99.90
9125;DHT22;4597;48.730;9.114;2024-03-07T02:08:39;4.10;99.90
9125;DHT22;4597;48.730;9.114;2024-03-07T02:11:05;4.00;99.90
9125;DHT22;4597;48.730;9.114;2024-03-07T02:13:30;4.00;99.90
9125;DHT22;4597;48.730;9.114;2024-03-07T02:15:57;4.00;99.90
9125;DHT22;4597;48.730;9.114;2024-03-07T02:18:23;3.90;99.90
9125;DHT22;4597;48.730;9.114;2024-03-07T02:20:49;3.90;99.90
9125;DHT22;4597;48.730;9.114;2024-03-07T02:23:14;4.00;99.90
9125;DHT22;4597;48.730;9.114;2024-03-07T02:25:40;4.00;99.90
9125;DHT22;4597;48.730;9.114;2024-03-07T02:28:06;4.00;99.90
9125;DHT22;4597;48.730;9.114;2024-03-07T02:30:32;4.00;99.90
9125;DHT22;4597;48.730;9.114;2024-03-07T02:33:01;4.10;99.90
9125;DHT22;4597;48.730;9.114;2024-03-07T02:35:35;4.00;99.90
9125;DHT22;4597;48.730;9.114;2024-03-07T02:38:02;4.00;99.90
9125;DHT22;4597;48.730;9.114;2024-03-07T02:40:28;4.00;99.90
9125;DHT22;4597;48.730;9.114;2024-03-07T02:42:54;4.00;99.90
9125;DHT22;4597;48.730;9.114;2024-03-07T02:45:20;3.90;99.90
9125;DHT22;4597;48.730;9.114;2024-03-07T02:47:46;3.90;99.90
9125;DHT22;4597;48.730;9.114;2024-03-07T02:50:11;3.80;99.90
9125;DHT22;4597;48.730;9.114;2024-03-07T02:52:37;3.80;99.90
9125;DHT22;4597;48.730;9.114;2024-03-07T02:55:03;3.80;99.90
9125;DHT22;4597;48.730;9.114;2024-03-07T02:57:30;3.70;99.90
9125;DHT22;4597;48.730;9.114;2024-03-07T02:59:55;3.70;99.90
9125;DHT22;4597;48.730;9.114;2024-03-07T03:02:22;3.70;99.90
9125;DHT22;4597;48.730;9.114;2024-03-07T03:04:47;3.70;99.90
9125;DHT22;4597;48.730;9.114;2024-03-07T03:07:13;3.70;99.90
9125;DHT22;4597;48.730;9.114;2024-03-07T03:09:38;3.60;99.90
9125;DHT22;4597;48.730;9.114;2024-03-07T03:12:08;3.60;99.90
9125;DHT22;4597;48.730;9.114;2024-03-07T03:14:34;3.60;99.90
9125;DHT22;4597;48.730;9.114;2024-03-07T03:17:00;3.50;99.90
9125;DHT22;4597;48.730;9.114;2024-03-07T03:19:25;3.60;99.90
9125;DHT22;4597;48.730;9.114;2024-03-07T03:21:52;3.50;99.90
9125;DHT22;4597;48.730;9.114;2024-03-07T03:24:17;3.50;99.90
9125;DHT22;4597;48.730;9.114;2024-03-07T03:26:43;3.40;99.90
9125;DHT22;4597;48.730;9.114;2024-03-07T03:29:09;3.30;99.90
9125;DHT22;4597;48.730;9.114;2024-03-07T03:31:37;3.30;99.90
9125;DHT22;4597;48.730;9.114;2024-03-07T03:34:02;3.30;99.90
9125;DHT22;4597;48.730;9.114;2024-03-07T03:36:28;3.20;99.90
9125;DHT22;4597;48.730;9.114;2024-03-07T03:38:54;3.20;99.90
9125;DHT22;4597;48.730;9.114;2024-03-07T03:41:20;3.20;99.90
9125;DHT22;4597;48.730;9.114;2024-03-07T03:43:45;3.10;99.90
9125;DHT22;4597;48.730;9.114;2024-03-07T03:46:12;3.10;99.90
9125;DHT22;4597;48.730;9.114;2024-03-07T03:48:41;3.00;99.90
9125;DHT22;4597;48.730;9.114;2024-03-07T03:51:07;3.00;99.90
9125;DHT22;4597;48.730;9.114;2024-03-07T03:53:33;2.90;99.90
9125;DHT22;4597;48.730;9.114;2024-03-07T03:55:59;2.90;99.90
9125;DHT22;4597;48.730;9.114;2024-03-07T03:58:24;2.90;99.90
9125;DHT22;4597;48.730;9.114;2024-03-07T04:00:50;2.90;99.90
9125;DHT22;4597;48.730;9.114;2024-03-07T04:03:16;2.80;99.90
9125;DHT22;4597;48.730;9.114;2024-03-07T04:05:41;2.80;99.90
9125;DHT22;4597;48.730;9.114;2024-03-07T04:08:07;2.80;99.90
9125;DHT22;4597;48.730;9.114;2024-03-07T04:10:32;2.80;99.90
9125;DHT22;4597;48.730;9.114;2024-03-07T04:12:58;2.70;99.90
9125;DHT22;4597;48.730;9.114;2024-03-07T04:15:24;2.80;99.90
9125;DHT22;4597;48.730;9.114;2024-03-07T04:17:52;2.70;99.90
9125;DHT22;4597;48.730;9.114;2024-03-07T04:20:18;2.70;99.90
9125;DHT22;4597;48.730;9.114;2024-03-07T04:22:44;2.70;99.90
9125;DHT22;4597;48.730;9.114;2024-03-07T04:25:09;2.70;99.90
9125;DHT22;4597;48.730;9.114;2024-03-07T04:27:38;2.70;99.90
9125;DHT22;4597;48.730;9.114;2024-03-07T04:30:06;2.60;99.90
9125;DHT22;4597;48.730;9.114;2024-03-07T04:32:33;2.60;99.90
9125;DHT22;4597;48.730;9.114;2024-03-07T04:35:00;2.50;99.90
9125;DHT22;4597;48.730;9.114;2024-03-07T04:37:26;2.50;99.90
9125;DHT22;4597;48.730;9.114;2024-03-07T04:39:53;2.50;99.90
9125;DHT22;4597;48.730;9.114;2024-03-07T04:42:18;2.50;99.90
9125;DHT22;4597;48.730;9.114;2024-03-07T04:44:44;2.50;99.90
9125;DHT22;4597;48.730;9.114;2024-03-07T04:47:10;2.50;99.90
9125;DHT22;4597;48.730;9.114;2024-03-07T04:49:35;2.50;99.90
9125;DHT22;4597;48.730;9.114;2024-03-07T04:52:02;2.50;99.90
9125;DHT22;4597;48.730;9.114;2024-03-07T04:54:29;2.50;99.90
9125;DHT22;4597;48.730;9.114;2024-03-07T04:56:55;2.50;99.90
9125;DHT22;4597;48.730;9.114;2024-03-07T04:59:22;2.40;99.90
9125;DHT22;4597;48.730;9.114;2024-03-07T05:01:49;2.40;99.90
9125;DHT22;4597;48.730;9.114;2024-03-07T05:04:18;2.40;99.90
9125;DHT22;4597;48.730;9.114;2024-03-07T05:06:44;2.40;99.90
9125;DHT22;4597;48.730;9.114;2024-03-07T05:09:10;2.30;99.90
9125;DHT22;4597;48.730;9.114;2024-03-07T05:11:49;2.30;99.90
9125;DHT22;4597;48.730;9.114;2024-03-07T05:14:17;2.20;99.90
9125;DHT22;4597;48.730;9.114;2024-03-07T05:16:44;2.20;99.90
9125;DHT22;4597;48.730;9.114;2024-03-07T05:19:10;2.20;99.90
9125;DHT22;4597;48.730;9.114;2024-03-07T05:21:35;2.10;99.90
9125;DHT22;4597;48.730;9.114;2024-03-07T05:24:06;2.20;99.90
9125;DHT22;4597;48.730;9.114;2024-03-07T05:26:33;2.20;99.90
9125;DHT22;4597;48.730;9.114;2024-03-07T05:29:12;2.20;99.90
9125;DHT22;4597;48.730;9.114;2024-03-07T05:31:38;2.20;99.90
9125;DHT22;4597;48.730;9.114;2024-03-07T05:34:09;2.10;99.90
9125;DHT22;4597;48.730;9.114;2024-03-07T05:36:35;2.10;99.90
9125;DHT22;4597;48.730;9.114;2024-03-07T05:39:01;2.10;99.90
9125;DHT22;4597;48.730;9.114;2024-03-07T05:41:33;2.10;99.90
9125;DHT22;4597;48.730;9.114;2024-03-07T05:43:59;2.10;99.90
9125;DHT22;4597;48.730;9.114;2024-03-07T05:46:25;2.00;99.90
9125;DHT22;4597;48.730;9.114;2024-03-07T05:48:51;2.00;99.90
9125;DHT22;4597;48.730;9.114;2024-03-07T05:51:24;2.00;99.90
9125;DHT22;4597;48.730;9.114;2024-03-07T05:53:49;2.00;99.90
9125;DHT22;4597;48.730;9.114;2024-03-07T05:56:16;2.00;99.90
9125;DHT22;4597;48.730;9.114;2024-03-07T05:58:41;2.00;99.90
9125;DHT22;4597;48.730;9.114;2024-03-07T06:01:07;2.00;99.90
9125;DHT22;4597;48.730;9.114;2024-03-07T06:03:36;1.90;99.90
9125;DHT22;4597;48.730;9.114;2024-03-07T06:06:01;2.00;99.90
9125;DHT22;4597;48.730;9.114;2024-03-07T06:08:27;1.90;99.90
9125;DHT22;4597;48.730;9.114;2024-03-07T06:10:53;1.90;99.90
9125;DHT22;4597;48.730;9.114;2024-03-07T06:13:19;1.90;99.90
9125;DHT22;4597;48.730;9.114;2024-03-07T06:15:45;1.90;99.90
9125;DHT22;4597;48.730;9.114;2024-03-07T06:18:12;1.90;99.90
9125;DHT22;4597;48.730;9.114;2024-03-07T06:20:39;2.00;99.90
9125;DHT22;4597;48.730;9.114;2024-03-07T06:23:06;1.90;99.90
9125;DHT22;4597;48.730;9.114;2024-03-07T06:25:32;2.00;99.90
9125;DHT22;4597;48.730;9.114;2024-03-07T06:28:16;2.00;99.90
9125;DHT22;4597;48.730;9.114;2024-03-07T06:30:44;2.00;99.90
9125;DHT22;4597;48.730;9.114;2024-03-07T06:33:11;1.90;99.90
9125;DHT22;4597;48.730;9.114;2024-03-07T06:35:37;1.90;99.90
9125;DHT22;4597;48.730;9.114;2024-03-07T06:38:04;2.00;99.90
9125;DHT22;4597;48.730;9.114;2024-03-07T06:40:31;2.00;99.90
9125;DHT22;4597;48.730;9.114;2024-03-07T06:42:58;2.10;99.90
9125;DHT22;4597;48.730;9.114;2024-03-07T06:45:23;2.00;99.90
9125;DHT22;4597;48.730;9.114;2024-03-07T06:47:49;2.00;99.90
9125;DHT22;4597;48.730;9.114;2024-03-07T06:50:15;2.10;99.90
9125;DHT22;4597;48.730;9.114;2024-03-07T06:52:42;2.10;99.90
9125;DHT22;4597;48.730;9.114;2024-03-07T06:55:09;2.10;99.90
9125;DHT22;4597;48.730;9.114;2024-03-07T06:57:36;2.20;99.90
9125;DHT22;4597;48.730;9.114;2024-03-07T07:00:02;2.20;99.90
9125;DHT22;4597;48.730;9.114;2024-03-07T07:02:39;2.20;99.90
9125;DHT22;4597;48.730;9.114;2024-03-07T07:05:08;2.20;99.90
9125;DHT22;4597;48.730;9.114;2024-03-07T07:07:46;2.30;99.90
9125;DHT22;4597;48.730;9.114;2024-03-07T07:10:13;2.30;99.90
9125;DHT22;4597;48.730;9.114;2024-03-07T07:15:09;2.30;99.90
9125;DHT22;4597;48.730;9.114;2024-03-07T07:17:35;2.40;99.90
9125;DHT22;4597;48.730;9.114;2024-03-07T07:20:01;2.40;99.90
9125;DHT22;4597;48.730;9.114;2024-03-07T07:22:26;2.40;99.90
9125;DHT22;4597;48.730;9.114;2024-03-07T07:24:52;2.50;99.90
9125;DHT22;4597;48.730;9.114;2024-03-07T07:27:18;2.50;99.90
9125;DHT22;4597;48.730;9.114;2024-03-07T07:29:46;2.60;99.90
9125;DHT22;4597;48.730;9.114;2024-03-07T07:32:12;2.60;99.90
9125;DHT22;4597;48.730;9.114;2024-03-07T07:34:38;2.60;99.90
9125;DHT22;4597;48.730;9.114;2024-03-07T07:37:04;2.70;99.90
9125;DHT22;4597;48.730;9.114;2024-03-07T07:39:30;2.70;99.90
9125;DHT22;4597;48.730;9.114;2024-03-07T07:41:55;2.80;99.90
9125;DHT22;4597;48.730;9.114;2024-03-07T07:44:21;2.80;99.90
9125;DHT22;4597;48.730;9.114;2024-03-07T07:46:47;2.80;99.90
9125;DHT22;4597;48.730;9.114;2024-03-07T07:49:14;2.90;99.90
9125;DHT22;4597;48.730;9.114;2024-03-07T07:51:40;2.90;99.90
9125;DHT22;4597;48.730;9.114;2024-03-07T07:54:05;3.00;99.90
9125;DHT22;4597;48.730;9.114;2024-03-07T07:56:30;3.00;99.90
9125;DHT22;4597;48.730;9.114;2024-03-07T07:58:56;3.00;99.90
9125;DHT22;4597;48.730;9.114;2024-03-07T08:01:22;3.00;99.90
9125;DHT22;4597;48.730;9.114;2024-03-07T08:03:47;3.10;99.90
9125;DHT22;4597;48.730;9.114;2024-03-07T08:06:13;3.20;99.90
9125;DHT22;4597;48.730;9.114;2024-03-07T08:08:39;3.40;99.90
9125;DHT22;4597;48.730;9.114;2024-03-07T08:11:05;3.50;99.90
9125;DHT22;4597;48.730;9.114;2024-03-07T08:13:31;3.60;99.90
9125;DHT22;4597;48.730;9.114;2024-03-07T08:15:56;3.90;99.90
9125;DHT22;4597;48.730;9.114;2024-03-07T08:18:22;4.10;99.90
9125;DHT22;4597;48.730;9.114;2024-03-07T08:20:48;4.30;99.90
9125;DHT22;4597;48.730;9.114;2024-03-07T08:23:13;4.40;99.90
9125;DHT22;4597;48.730;9.114;2024-03-07T08:25:39;4.60;99.90
9125;DHT22;4597;48.730;9.114;2024-03-07T08:28:06;4.70;99.90
9125;DHT22;4597;48.730;9.114;2024-03-07T08:30:32;4.90;99.90
9125;DHT22;4597;48.730;9.114;2024-03-07T08:32:58;5.00;99.90
9125;DHT22;4597;48.730;9.114;2024-03-07T08:35:30;5.00;99.90
9125;DHT22;4597;48.730;9.114;2024-03-07T08:37:56;5.00;99.90
9125;DHT22;4597;48.730;9.114;2024-03-07T08:40:29;4.90;99.90
9125;DHT22;4597;48.730;9.114;2024-03-07T08:43:00;4.80;99.90
9125;DHT22;4597;48.730;9.114;2024-03-07T08:45:26;4.80;99.90
9125;DHT22;4597;48.730;9.114;2024-03-07T08:47:54;4.80;99.90
9125;DHT22;4597;48.730;9.114;2024-03-07T08:50:20;4.80;99.90
9125;DHT22;4597;48.730;9.114;2024-03-07T08:52:46;4.80;99.90
9125;DHT22;4597;48.730;9.114;2024-03-07T08:55:14;4.80;99.90
9125;DHT22;4597;48.730;9.114;2024-03-07T08:57:41;4.90;99.90
9125;DHT22;4597;48.730;9.114;2024-03-07T09:00:07;4.90;99.90
9125;DHT22;4597;48.730;9.114;2024-03-07T09:02:34;5.00;99.90
9125;DHT22;4597;48.730;9.114;2024-03-07T09:05:01;5.10;99.90
9125;DHT22;4597;48.730;9.114;2024-03-07T09:07:26;5.10;99.90
9125;DHT22;4597;48.730;9.114;2024-03-07T09:09:52;5.20;99.90
9125;DHT22;4597;48.730;9.114;2024-03-07T09:12:17;5.20;99.90
9125;DHT22;4597;48.730;9.114;2024-03-07T09:14:45;5.30;99.90
9125;DHT22;4597;48.730;9.114;2024-03-07T09:17:11;5.40;99.90
9125;DHT22;4597;48.730;9.114;2024-03-07T09:19:37;5.60;99.90
9125;DHT22;4597;48.730;9.114;2024-03-07T09:22:03;5.70;99.90
9125;DHT22;4597;48.730;9.114;2024-03-07T09:24:30;5.90;99.90
9125;DHT22;4597;48.730;9.114;2024-03-07T09:26:56;6.10;99.90
9125;DHT22;4597;48.730;9.114;2024-03-07T09:29:22;6.20;99.90
9125;DHT22;4597;48.730;9.114;2024-03-07T09:31:50;6.30;99.90
9125;DHT22;4597;48.730;9.114;2024-03-07T09:34:20;6.50;99.90
9125;DHT22;4597;48.730;9.114;2024-03-07T09:36:49;6.50;99.90
9125;DHT22;4597;48.730;9.114;2024-03-07T09:39:15;6.60;99.90
9125;DHT22;4597;48.730;9.114;2024-03-07T09:41:41;6.60;99.90
9125;DHT22;4597;48.730;9.114;2024-03-07T09:44:14;6.60;99.90
9125;DHT22;4597;48.730;9.114;2024-03-07T09:46:45;6.70;99.90
9125;DHT22;4597;48.730;9.114;2024-03-07T09:49:12;6.80;99.90
9125;DHT22;4597;48.730;9.114;2024-03-07T09:51:39;6.90;99.90
9125;DHT22;4597;48.730;9.114;2024-03-07T09:54:05;7.00;99.90
9125;DHT22;4597;48.730;9.114;2024-03-07T09:56:31;7.20;99.90
9125;DHT22;4597;48.730;9.114;2024-03-07T09:59:03;7.20;99.90
9125;DHT22;4597;48.730;9.114;2024-03-07T10:01:32;7.30;99.90
9125;DHT22;4597;48.730;9.114;2024-03-07T10:04:00;7.30;99.90
9125;DHT22;4597;48.730;9.114;2024-03-07T10:06:40;7.40;99.90
9125;DHT22;4597;48.730;9.114;2024-03-07T10:09:09;7.50;99.90
9125;DHT22;4597;48.730;9.114;2024-03-07T10:11:39;7.60;99.90
9125;DHT22;4597;48.730;9.114;2024-03-07T10:14:04;7.70;99.90
9125;DHT22;4597;48.730;9.114;2024-03-07T10:16:30;7.80;99.90
9125;DHT22;4597;48.730;9.114;2024-03-07T10:18:57;7.80;99.90
9125;DHT22;4597;48.730;9.114;2024-03-07T10:21:22;7.70;99.90
9125;DHT22;4597;48.730;9.114;2024-03-07T10:23:49;7.70;99.90
9125;DHT22;4597;48.730;9.114;2024-03-07T10:26:17;7.70;99.90
9125;DHT22;4597;48.730;9.114;2024-03-07T10:28:43;7.70;99.90
9125;DHT22;4597;48.730;9.114;2024-03-07T10:31:08;7.60;99.90
9125;DHT22;4597;48.730;9.114;2024-03-07T10:33:37;7.60;99.90
9125;DHT22;4597;48.730;9.114;2024-03-07T10:36:03;7.50;99.90
9125;DHT22;4597;48.730;9.114;2024-03-07T10:38:28;7.30;99.90
9125;DHT22;4597;48.730;9.114;2024-03-07T10:40:55;7.10;99.90
9125;DHT22;4597;48.730;9.114;2024-03-07T10:43:21;7.00;99.90
9125;DHT22;4597;48.730;9.114;2024-03-07T10:45:48;7.00;99.90
9125;DHT22;4597;48.730;9.114;2024-03-07T10:48:18;6.90;99.90
9125;DHT22;4597;48.730;9.114;2024-03-07T10:53:52;6.80;99.90
9125;DHT22;4597;48.730;9.114;2024-03-07T10:56:31;6.70;99.90
9125;DHT22;4597;48.730;9.114;2024-03-07T10:59:16;6.80;99.90
9125;DHT22;4597;48.730;9.114;2024-03-07T11:02:13;6.90;99.90
9125;DHT22;4597;48.730;9.114;2024-03-07T11:04:41;7.00;99.90
9125;DHT22;4597;48.730;9.114;2024-03-07T11:07:08;7.20;99.90
9125;DHT22;4597;48.730;9.114;2024-03-07T11:09:36;7.40;99.90
9125;DHT22;4597;48.730;9.114;2024-03-07T11:12:03;7.50;99.90
9125;DHT22;4597;48.730;9.114;2024-03-07T11:14:29;7.60;99.90
9125;DHT22;4597;48.730;9.114;2024-03-07T11:16:57;7.90;99.90
9125;DHT22;4597;48.730;9.114;2024-03-07T11:19:27;8.00;99.90
9125;DHT22;4597;48.730;9.114;2024-03-07T11:21:54;8.20;99.90
9125;DHT22;4597;48.730;9.114;2024-03-07T11:24:26;8.30;99.90
9125;DHT22;4597;48.730;9.114;2024-03-07T11:26:55;8.40;99.90
9125;DHT22;4597;48.730;9.114;2024-03-07T11:29:39;8.40;99.90
9125;DHT22;4597;48.730;9.114;2024-03-07T11:32:12;8.60;99.90
9125;DHT22;4597;48.730;9.114;2024-03-07T11:34:39;8.70;99.90
9125;DHT22;4597;48.730;9.114;2024-03-07T11:37:08;8.90;99.90
9125;DHT22;4597;48.730;9.114;2024-03-07T11:39:44;9.00;99.90
9125;DHT22;4597;48.730;9.114;2024-03-07T11:44:49;9.20;99.90
9125;DHT22;4597;48.730;9.114;2024-03-07T11:47:14;9.30;99.90
9125;DHT22;4597;48.730;9.114;2024-03-07T11:49:41;9.40;99.90
9125;DHT22;4597;48.730;9.114;2024-03-07T11:52:06;9.40;99.90
9125;DHT22;4597;48.730;9.114;2024-03-07T11:54:41;9.40;99.90
9125;DHT22;4597;48.730;9.114;2024-03-07T11:57:11;9.50;99.90
9125;DHT22;4597;48.730;9.114;2024-03-07T11:59:40;9.50;99.90
9125;DHT22;4597;48.730;9.114;2024-03-07T12:02:13;9.60;99.90
9125;DHT22;4597;48.730;9.114;2024-03-07T12:04:43;9.60;99.90
9125;DHT22;4597;48.730;9.114;2024-03-07T12:07:08;9.70;99.90
9125;DHT22;4597;48.730;9.114;2024-03-07T12:09:37;9.70;99.90
9125;DHT22;4597;48.730;9.114;2024-03-07T12:12:05;9.80;99.90
9125;DHT22;4597;48.730;9.114;2024-03-07T12:14:30;9.90;99.90
9125;DHT22;4597;48.730;9.114;2024-03-07T12:16:56;10.00;99.90
9125;DHT22;4597;48.730;9.114;2024-03-07T12:19:23;10.00;99.90
9125;DHT22;4597;48.730;9.114;2024-03-07T12:21:48;10.00;99.90
9125;DHT22;4597;48.730;9.114;2024-03-07T12:24:14;10.00;99.90
9125;DHT22;4597;48.730;9.114;2024-03-07T12:26:41;10.00;99.90
9125;DHT22;4597;48.730;9.114;2024-03-07T12:29:11;9.90;99.90
9125;DHT22;4597;48.730;9.114;2024-03-07T12:31:41;9.90;99.90
9125;DHT22;4597;48.730;9.114;2024-03-07T12:34:10;9.90;99.90
9125;DHT22;4597;48.730;9.114;2024-03-07T12:36:36;9.90;99.90
9125;DHT22;4597;48.730;9.114;2024-03-07T12:41:57;9.80;99.90
9125;DHT22;4597;48.730;9.114;2024-03-07T12:44:23;9.70;99.90
9125;DHT22;4597;48.730;9.114;2024-03-07T12:46:51;9.80;99.90
9125;DHT22;4597;48.730;9.114;2024-03-07T12:49:24;9.70;99.90
9125;DHT22;4597;48.730;9.114;2024-03-07T12:51:54;9.70;99.90
9125;DHT22;4597;48.730;9.114;2024-03-07T12:54:20;9.80;99.90
9125;DHT22;4597;48.730;9.114;2024-03-07T12:56:45;9.90;99.90
9125;DHT22;4597;48.730;9.114;2024-03-07T12:59:11;10.00;99.90
9125;DHT22;4597;48.730;9.114;2024-03-07T13:01:36;10.00;99.90
9125;DHT22;4597;48.730;9.114;2024-03-07T13:04:05;10.00;99.90
9125;DHT22;4597;48.730;9.114;2024-03-07T13:06:34;9.90;99.90
9125;DHT22;4597;48.730;9.114;2024-03-07T13:08:59;9.90;99.90
9125;DHT22;4597;48.730;9.114;2024-03-07T13:11:25;9.80;99.90
9125;DHT22;4597;48.730;9.114;2024-03-07T13:13:55;9.80;99.90
9125;DHT22;4597;48.730;9.114;2024-03-07T13:16:22;9.70;99.90
9125;DHT22;4597;48.730;9.114;2024-03-07T13:18:53;9.80;99.90
9125;DHT22;4597;48.730;9.114;2024-03-07T13:21:19;9.80;99.90
9125;DHT22;4597;48.730;9.114;2024-03-07T13:23:45;9.80;99.90
9125;DHT22;4597;48.730;9.114;2024-03-07T13:26:11;9.80;99.90
9125;DHT22;4597;48.730;9.114;2024-03-07T13:28:43;9.80;99.90
9125;DHT22;4597;48.730;9.114;2024-03-07T13:31:10;9.80;99.90
9125;DHT22;4597;48.730;9.114;2024-03-07T13:33:37;9.90;99.90
9125;DHT22;4597;48.730;9.114;2024-03-07T13:36:02;9.80;99.90
9125;DHT22;4597;48.730;9.114;2024-03-07T13:38:29;9.80;99.90
9125;DHT22;4597;48.730;9.114;2024-03-07T13:40:55;9.80;99.90
9125;DHT22;4597;48.730;9.114;2024-03-07T13:43:22;9.80;99.90
9125;DHT22;4597;48.730;9.114;2024-03-07T13:45:48;9.80;99.90
9125;DHT22;4597;48.730;9.114;2024-03-07T13:48:14;9.70;99.90
9125;DHT22;4597;48.730;9.114;2024-03-07T13:50:42;9.70;99.90
9125;DHT22;4597;48.730;9.114;2024-03-07T13:53:10;9.70;99.90
9125;DHT22;4597;48.730;9.114;2024-03-07T14:07:04;9.70;99.90
9125;DHT22;4597;48.730;9.114;2024-03-07T14:13:01;9.80;99.90
9125;DHT22;4597;48.730;9.114;2024-03-07T14:27:10;9.90;99.90
9125;DHT22;4597;48.730;9.114;2024-03-07T14:30:07;9.90;99.90
9125;DHT22;4597;48.730;9.114;2024-03-07T14:32:37;9.90;99.90
9125;DHT22;4597;48.730;9.114;2024-03-07T14:35:16;9.90;99.90
9125;DHT22;4597;48.730;9.114;2024-03-07T14:38:01;10.00;99.90
9125;DHT22;4597;48.730;9.114;2024-03-07T14:40:28;10.10;99.90
9125;DHT22;4597;48.730;9.114;2024-03-07T14:42:55;10.20;99.90
9125;DHT22;4597;48.730;9.114;2024-03-07T14:45:36;10.40;99.90
9125;DHT22;4597;48.730;9.114;2024-03-07T14:48:04;10.50;99.90
9125;DHT22;4597;48.730;9.114;2024-03-07T14:50:31;10.40;99.90
9125;DHT22;4597;48.730;9.114;2024-03-07T14:52:58;10.50;99.90
9125;DHT22;4597;48.730;9.114;2024-03-07T14:55:24;10.70;99.90
9125;DHT22;4597;48.730;9.114;2024-03-07T14:57:49;10.70;99.90
9125;DHT22;4597;48.730;9.114;2024-03-07T15:00:15;10.70;99.90
9125;DHT22;4597;48.730;9.114;2024-03-07T15:02:53;10.80;99.90
9125;DHT22;4597;48.730;9.114;2024-03-07T15:05:23;10.70;99.50
9125;DHT22;4597;48.730;9.114;2024-03-07T15:07:50;10.50;99.50
9125;DHT22;4597;48.730;9.114;2024-03-07T15:10:19;10.40;99.90
9125;DHT22;4597;48.730;9.114;2024-03-07T15:12:46;10.30;99.90
9125;DHT22;4597;48.730;9.114;2024-03-07T15:15:14;10.20;99.90
9125;DHT22;4597;48.730;9.114;2024-03-07T15:17:44;10.30;99.90
9125;DHT22;4597;48.730;9.114;2024-03-07T15:20:11;10.40;99.90
9125;DHT22;4597;48.730;9.114;2024-03-07T15:22:54;10.50;99.90
9125;DHT22;4597;48.730;9.114;2024-03-07T15:25:21;10.60;99.90
9125;DHT22;4597;48.730;9.114;2024-03-07T15:27:52;10.90;99.90
9125;DHT22;4597;48.730;9.114;2024-03-07T15:30:19;10.90;99.90
9125;DHT22;4597;48.730;9.114;2024-03-07T15:32:46;11.00;98.80
9125;DHT22;4597;48.730;9.114;2024-03-07T15:35:13;11.00;99.50
9125;DHT22;4597;48.730;9.114;2024-03-07T15:37:48;11.10;99.90
9125;DHT22;4597;48.730;9.114;2024-03-07T15:40:15;11.20;99.90
9125;DHT22;4597;48.730;9.114;2024-03-07T15:42:45;11.20;99.60
9125;DHT22;4597;48.730;9.114;2024-03-07T15:45:16;11.00;98.90
9125;DHT22;4597;48.730;9.114;2024-03-07T15:47:52;11.00;98.50
9125;DHT22;4597;48.730;9.114;2024-03-07T15:50:18;10.80;99.10
9125;DHT22;4597;48.730;9.114;2024-03-07T15:52:46;10.70;99.90
9125;DHT22;4597;48.730;9.114;2024-03-07T15:55:12;10.80;99.90
9125;DHT22;4597;48.730;9.114;2024-03-07T15:57:49;10.70;99.70
9125;DHT22;4597;48.730;9.114;2024-03-07T16:00:16;10.50;99.40
9125;DHT22;4597;48.730;9.114;2024-03-07T16:02:51;10.30;99.90
9125;DHT22;4597;48.730;9.114;2024-03-07T16:05:18;10.00;99.90
9125;DHT22;4597;48.730;9.114;2024-03-07T16:07:44;9.90;99.90
9125;DHT22;4597;48.730;9.114;2024-03-07T16:10:09;9.90;99.90
9125;DHT22;4597;48.730;9.114;2024-03-07T16:12:35;9.80;99.90
9125;DHT22;4597;48.730;9.114;2024-03-07T16:15:01;9.70;99.90
9125;DHT22;4597;48.730;9.114;2024-03-07T16:17:26;9.60;99.90
9125;DHT22;4597;48.730;9.114;2024-03-07T16:19:52;9.40;99.90
9125;DHT22;4597;48.730;9.114;2024-03-07T16:22:17;9.40;99.90
9125;DHT22;4597;48.730;9.114;2024-03-07T16:24:46;9.30;99.90
9125;DHT22;4597;48.730;9.114;2024-03-07T16:27:11;9.30;99.90
9125;DHT22;4597;48.730;9.114;2024-03-07T16:29:37;9.30;99.90
9125;DHT22;4597;48.730;9.114;2024-03-07T16:32:03;9.20;99.90
9125;DHT22;4597;48.730;9.114;2024-03-07T16:34:29;9.10;99.90
9125;DHT22;4597;48.730;9.114;2024-03-07T16:36:56;9.00;99.90
9125;DHT22;4597;48.730;9.114;2024-03-07T16:39:22;8.90;99.90
9125;DHT22;4597;48.730;9.114;2024-03-07T16:41:47;8.80;99.90
9125;DHT22;4597;48.730;9.114;2024-03-07T16:44:13;8.70;99.90
9125;DHT22;4597;48.730;9.114;2024-03-07T16:46:39;8.60;99.90
9125;DHT22;4597;48.730;9.114;2024-03-07T16:49:05;8.60;99.90
9125;DHT22;4597;48.730;9.114;2024-03-07T16:51:33;8.50;99.90
9125;DHT22;4597;48.730;9.114;2024-03-07T16:53:59;8.40;99.90
9125;DHT22;4597;48.730;9.114;2024-03-07T16:56:25;8.40;99.90